sensor_id;sensor_type;location;lat;lon;timestamp;P1;P2;P0
72854;PMS7003;60991;51.278;22.550;2023-08-01T00:00:01;7.00;7.00;4.75
72854;PMS7003;60991;51.278;22.550;2023-08-01T00:01:32;7.00;6.00;4.50
72854;PMS7003;60991;51.278;22.550;2023-08-01T00:03:03;9.00;7.75;6.75
72854;PMS7003;60991;51.278;22.550;2023-08-01T00:04:33;7.50;6.00;5.00
72854;PMS7003;60991;51.278;22.550;2023-08-01T00:06:03;10.00;6.75;4.75
72854;PMS7003;60991;51.278;22.550;2023-08-01T00:07:33;7.75;7.25;6.25
72854;PMS7003;60991;51.278;22.550;2023-08-01T00:09:03;8.00;7.50;5.75
72854;PMS7003;60991;51.278;22.550;2023-08-01T00:10:34;9.25;7.00;5.75
72854;PMS7003;60991;51.278;22.550;2023-08-01T00:12:04;10.00;8.50;6.00
72854;PMS7003;60991;51.278;22.550;2023-08-01T00:13:34;8.00;8.00;5.00
72854;PMS7003;60991;51.278;22.550;2023-08-01T00:15:05;10.75;7.75;5.75
72854;PMS7003;60991;51.278;22.550;2023-08-01T00:16:36;9.25;9.25;7.75
72854;PMS7003;60991;51.278;22.550;2023-08-01T00:18:06;9.00;8.25;6.25
72854;PMS7003;60991;51.278;22.550;2023-08-01T00:19:36;10.75;8.75;6.50
72854;PMS7003;60991;51.278;22.550;2023-08-01T00:21:07;9.25;8.00;5.25
72854;PMS7003;60991;51.278;22.550;2023-08-01T00:22:37;9.00;9.00;7.25
72854;PMS7003;60991;51.278;22.550;2023-08-01T00:24:07;6.50;6.50;5.75
72854;PMS7003;60991;51.278;22.550;2023-08-01T00:25:37;8.50;7.50;6.00
72854;PMS7003;60991;51.278;22.550;2023-08-01T00:27:08;6.75;6.00;5.75
72854;PMS7003;60991;51.278;22.550;2023-08-01T00:28:38;8.50;7.25;5.75
72854;PMS7003;60991;51.278;22.550;2023-08-01T00:30:08;4.50;4.00;2.25
72854;PMS7003;60991;51.278;22.550;2023-08-01T00:31:39;7.00;7.00;5.50
72854;PMS7003;60991;51.278;22.550;2023-08-01T00:33:09;8.50;8.50;6.25
72854;PMS7003;60991;51.278;22.550;2023-08-01T00:34:39;11.75;8.75;6.50
72854;PMS7003;60991;51.278;22.550;2023-08-01T00:36:10;8.00;8.00;6.50
72854;PMS7003;60991;51.278;22.550;2023-08-01T00:37:40;9.75;7.00;5.25
72854;PMS7003;60991;51.278;22.550;2023-08-01T00:39:10;6.00;5.50;3.50
72854;PMS7003;60991;51.278;22.550;2023-08-01T00:40:40;10.25;7.00;6.00
72854;PMS7003;60991;51.278;22.550;2023-08-01T00:42:10;8.00;8.00;6.50
72854;PMS7003;60991;51.278;22.550;2023-08-01T00:43:41;9.50;7.50;6.25
72854;PMS7003;60991;51.278;22.550;2023-08-01T00:45:11;6.75;6.75;6.00
72854;PMS7003;60991;51.278;22.550;2023-08-01T00:46:41;9.00;9.00;6.25
72854;PMS7003;60991;51.278;22.550;2023-08-01T00:48:11;8.00;8.00;6.25
72854;PMS7003;60991;51.278;22.550;2023-08-01T00:49:42;7.50;7.25;5.25
72854;PMS7003;60991;51.278;22.550;2023-08-01T00:51:12;8.75;8.75;5.75
72854;PMS7003;60991;51.278;22.550;2023-08-01T00:52:43;10.50;7.75;5.50
72854;PMS7003;60991;51.278;22.550;2023-08-01T00:54:13;7.00;7.00;5.75
72854;PMS7003;60991;51.278;22.550;2023-08-01T00:55:44;7.75;7.00;5.75
72854;PMS7003;60991;51.278;22.550;2023-08-01T00:57:15;7.00;7.00;5.75
72854;PMS7003;60991;51.278;22.550;2023-08-01T00:58:45;7.75;7.00;6.00
72854;PMS7003;60991;51.278;22.550;2023-08-01T01:00:15;7.75;7.00;6.00
72854;PMS7003;60991;51.278;22.550;2023-08-01T01:01:45;7.50;7.50;5.00
72854;PMS7003;60991;51.278;22.550;2023-08-01T01:03:16;10.00;7.75;6.25
72854;PMS7003;60991;51.278;22.550;2023-08-01T01:04:46;8.25;8.25;6.25
72854;PMS7003;60991;51.278;22.550;2023-08-01T01:06:20;7.25;7.25;6.00
72854;PMS7003;60991;51.278;22.550;2023-08-01T01:07:53;8.00;8.00;5.00
72854;PMS7003;60991;51.278;22.550;2023-08-01T01:09:24;7.75;7.75;6.00
72854;PMS7003;60991;51.278;22.550;2023-08-01T01:10:57;7.75;7.25;5.50
72854;PMS7003;60991;51.278;22.550;2023-08-01T01:12:27;11.25;9.75;7.25
72854;PMS7003;60991;51.278;22.550;2023-08-01T01:13:58;9.25;8.25;7.00
72854;PMS7003;60991;51.278;22.550;2023-08-01T01:15:28;8.25;7.75;5.75
72854;PMS7003;60991;51.278;22.550;2023-08-01T01:16:58;6.75;6.75;5.75
72854;PMS7003;60991;51.278;22.550;2023-08-01T01:18:28;7.75;7.75;5.25
72854;PMS7003;60991;51.278;22.550;2023-08-01T01:19:58;7.75;7.75;6.75
72854;PMS7003;60991;51.278;22.550;2023-08-01T01:21:29;10.00;10.00;7.00
72854;PMS7003;60991;51.278;22.550;2023-08-01T01:22:59;8.75;8.75;6.75
72854;PMS7003;60991;51.278;22.550;2023-08-01T01:24:31;6.75;6.75;4.75
72854;PMS7003;60991;51.278;22.550;2023-08-01T01:26:03;8.75;7.50;6.00
72854;PMS7003;60991;51.278;22.550;2023-08-01T01:27:36;8.00;7.00;5.00
72854;PMS7003;60991;51.278;22.550;2023-08-01T01:29:07;8.75;8.50;6.50
72854;PMS7003;60991;51.278;22.550;2023-08-01T01:30:40;7.75;7.75;6.00
72854;PMS7003;60991;51.278;22.550;2023-08-01T01:32:12;9.25;7.50;6.00
72854;PMS7003;60991;51.278;22.550;2023-08-01T01:33:43;10.00;10.00;6.00
72854;PMS7003;60991;51.278;22.550;2023-08-01T01:35:13;10.00;8.00;5.50
72854;PMS7003;60991;51.278;22.550;2023-08-01T01:36:44;8.00;8.00;6.75
72854;PMS7003;60991;51.278;22.550;2023-08-01T01:38:14;9.75;9.75;7.25
72854;PMS7003;60991;51.278;22.550;2023-08-01T01:39:45;8.25;7.75;6.00
72854;PMS7003;60991;51.278;22.550;2023-08-01T01:41:15;7.50;6.50;5.50
72854;PMS7003;60991;51.278;22.550;2023-08-01T01:42:45;10.50;10.25;7.00
72854;PMS7003;60991;51.278;22.550;2023-08-01T01:44:15;7.50;7.25;6.00
72854;PMS7003;60991;51.278;22.550;2023-08-01T01:45:46;11.00;9.50;6.75
72854;PMS7003;60991;51.278;22.550;2023-08-01T01:47:16;10.25;10.25;6.75
72854;PMS7003;60991;51.278;22.550;2023-08-01T01:48:47;11.00;11.00;8.25
72854;PMS7003;60991;51.278;22.550;2023-08-01T01:50:17;8.50;8.50;5.75
72854;PMS7003;60991;51.278;22.550;2023-08-01T01:51:48;8.00;8.00;5.50
72854;PMS7003;60991;51.278;22.550;2023-08-01T01:53:18;9.75;8.50;6.50
72854;PMS7003;60991;51.278;22.550;2023-08-01T01:54:48;9.00;8.00;7.00
72854;PMS7003;60991;51.278;22.550;2023-08-01T01:56:19;9.75;9.75;7.50
72854;PMS7003;60991;51.278;22.550;2023-08-01T01:57:49;8.50;8.50;7.25
72854;PMS7003;60991;51.278;22.550;2023-08-01T01:59:19;10.00;10.00;7.00
72854;PMS7003;60991;51.278;22.550;2023-08-01T02:00:49;8.25;6.50;5.25
72854;PMS7003;60991;51.278;22.550;2023-08-01T02:02:19;9.75;9.75;6.50
72854;PMS7003;60991;51.278;22.550;2023-08-01T02:03:49;9.00;6.00;5.00
72854;PMS7003;60991;51.278;22.550;2023-08-01T02:05:20;8.25;7.25;6.00
72854;PMS7003;60991;51.278;22.550;2023-08-01T02:06:50;8.00;8.00;5.00
72854;PMS7003;60991;51.278;22.550;2023-08-01T02:08:20;8.75;8.75;6.50
72854;PMS7003;60991;51.278;22.550;2023-08-01T02:09:50;10.00;9.50;6.00
72854;PMS7003;60991;51.278;22.550;2023-08-01T02:11:21;9.00;8.50;6.75
72854;PMS7003;60991;51.278;22.550;2023-08-01T02:12:51;11.00;9.25;6.25
72854;PMS7003;60991;51.278;22.550;2023-08-01T02:14:21;8.25;8.25;7.00
72854;PMS7003;60991;51.278;22.550;2023-08-01T02:15:51;8.00;7.75;5.75
72854;PMS7003;60991;51.278;22.550;2023-08-01T02:17:21;11.00;10.00;7.00
72854;PMS7003;60991;51.278;22.550;2023-08-01T02:18:52;10.00;10.00;7.00
72854;PMS7003;60991;51.278;22.550;2023-08-01T02:20:22;12.75;10.75;7.75
72854;PMS7003;60991;51.278;22.550;2023-08-01T02:21:53;9.00;9.00;7.50
72854;PMS7003;60991;51.278;22.550;2023-08-01T02:23:23;13.50;12.00;7.75
72854;PMS7003;60991;51.278;22.550;2023-08-01T02:24:54;11.25;10.50;8.00
72854;PMS7003;60991;51.278;22.550;2023-08-01T02:26:24;9.75;8.75;6.25
72854;PMS7003;60991;51.278;22.550;2023-08-01T02:27:55;13.25;10.25;8.00
72854;PMS7003;60991;51.278;22.550;2023-08-01T02:29:25;9.75;9.75;7.00
72854;PMS7003;60991;51.278;22.550;2023-08-01T02:30:55;10.25;10.25;7.00
72854;PMS7003;60991;51.278;22.550;2023-08-01T02:32:25;11.25;9.75;7.25
72854;PMS7003;60991;51.278;22.550;2023-08-01T02:33:55;10.25;10.00;6.00
72854;PMS7003;60991;51.278;22.550;2023-08-01T02:35:26;10.75;10.75;8.00
72854;PMS7003;60991;51.278;22.550;2023-08-01T02:36:56;10.75;10.75;6.75
72854;PMS7003;60991;51.278;22.550;2023-08-01T02:38:26;12.00;12.00;8.00
72854;PMS7003;60991;51.278;22.550;2023-08-01T02:39:56;10.25;10.25;7.00
72854;PMS7003;60991;51.278;22.550;2023-08-01T02:41:26;10.00;10.00;7.00
72854;PMS7003;60991;51.278;22.550;2023-08-01T02:42:57;13.25;11.00;7.00
72854;PMS7003;60991;51.278;22.550;2023-08-01T02:44:27;14.50;11.00;7.25
72854;PMS7003;60991;51.278;22.550;2023-08-01T02:45:57;9.50;9.00;6.25
72854;PMS7003;60991;51.278;22.550;2023-08-01T02:47:27;10.75;10.75;9.00
72854;PMS7003;60991;51.278;22.550;2023-08-01T02:48:57;12.75;12.00;8.00
72854;PMS7003;60991;51.278;22.550;2023-08-01T02:50:28;12.25;12.25;9.50
72854;PMS7003;60991;51.278;22.550;2023-08-01T02:51:58;10.00;10.00;7.00
72854;PMS7003;60991;51.278;22.550;2023-08-01T02:53:28;12.50;12.50;9.00
72854;PMS7003;60991;51.278;22.550;2023-08-01T02:54:58;11.50;11.50;7.25
72854;PMS7003;60991;51.278;22.550;2023-08-01T02:56:28;11.25;11.25;8.00
72854;PMS7003;60991;51.278;22.550;2023-08-01T02:57:59;11.75;11.00;7.75
72854;PMS7003;60991;51.278;22.550;2023-08-01T02:59:29;16.00;12.75;7.50
72854;PMS7003;60991;51.278;22.550;2023-08-01T03:00:59;14.25;11.75;8.75
72854;PMS7003;60991;51.278;22.550;2023-08-01T03:02:29;15.50;13.00;9.00
72854;PMS7003;60991;51.278;22.550;2023-08-01T03:03:59;12.00;12.00;8.00
72854;PMS7003;60991;51.278;22.550;2023-08-01T03:05:30;15.50;12.75;9.00
72854;PMS7003;60991;51.278;22.550;2023-08-01T03:07:00;11.75;10.50;9.00
72854;PMS7003;60991;51.278;22.550;2023-08-01T03:08:30;12.00;11.25;8.25
72854;PMS7003;60991;51.278;22.550;2023-08-01T03:10:00;11.00;10.25;8.25
72854;PMS7003;60991;51.278;22.550;2023-08-01T03:11:31;12.25;9.75;7.00
72854;PMS7003;60991;51.278;22.550;2023-08-01T03:13:02;13.75;13.75;10.00
72854;PMS7003;60991;51.278;22.550;2023-08-01T03:14:32;8.75;8.75;6.25
72854;PMS7003;60991;51.278;22.550;2023-08-01T03:16:02;13.25;11.75;8.75
72854;PMS7003;60991;51.278;22.550;2023-08-01T03:17:32;12.75;11.75;7.00
72854;PMS7003;60991;51.278;22.550;2023-08-01T03:19:02;12.25;9.50;6.50
72854;PMS7003;60991;51.278;22.550;2023-08-01T03:20:33;10.50;10.25;7.75
72854;PMS7003;60991;51.278;22.550;2023-08-01T03:22:03;13.50;12.50;7.50
72854;PMS7003;60991;51.278;22.550;2023-08-01T03:23:34;11.25;10.25;7.25
72854;PMS7003;60991;51.278;22.550;2023-08-01T03:25:04;12.75;12.00;8.00
72854;PMS7003;60991;51.278;22.550;2023-08-01T03:26:35;11.00;10.00;7.75
72854;PMS7003;60991;51.278;22.550;2023-08-01T03:28:06;13.25;11.00;8.50
72854;PMS7003;60991;51.278;22.550;2023-08-01T03:29:36;11.25;11.25;7.00
72854;PMS7003;60991;51.278;22.550;2023-08-01T03:31:06;16.75;11.25;8.00
72854;PMS7003;60991;51.278;22.550;2023-08-01T03:32:37;11.25;9.00;8.00
72854;PMS7003;60991;51.278;22.550;2023-08-01T03:34:07;12.25;12.25;8.50
72854;PMS7003;60991;51.278;22.550;2023-08-01T03:35:37;15.75;14.75;10.75
72854;PMS7003;60991;51.278;22.550;2023-08-01T03:37:07;14.25;14.25;9.50
72854;PMS7003;60991;51.278;22.550;2023-08-01T03:38:37;15.25;13.75;9.00
72854;PMS7003;60991;51.278;22.550;2023-08-01T03:40:08;11.75;10.50;8.00
72854;PMS7003;60991;51.278;22.550;2023-08-01T03:41:38;11.75;11.75;8.50
72854;PMS7003;60991;51.278;22.550;2023-08-01T03:43:08;14.25;13.25;8.50
72854;PMS7003;60991;51.278;22.550;2023-08-01T03:44:38;11.50;9.50;7.25
72854;PMS7003;60991;51.278;22.550;2023-08-01T03:46:08;12.50;11.25;9.00
72854;PMS7003;60991;51.278;22.550;2023-08-01T03:47:39;14.25;12.00;7.50
72854;PMS7003;60991;51.278;22.550;2023-08-01T03:49:09;15.50;13.75;9.50
72854;PMS7003;60991;51.278;22.550;2023-08-01T03:50:39;13.00;11.00;9.00
72854;PMS7003;60991;51.278;22.550;2023-08-01T03:52:10;10.50;8.50;5.75
72854;PMS7003;60991;51.278;22.550;2023-08-01T03:53:40;11.00;11.00;8.00
72854;PMS7003;60991;51.278;22.550;2023-08-01T03:55:10;12.00;11.25;8.00
72854;PMS7003;60991;51.278;22.550;2023-08-01T03:56:40;16.00;11.25;8.00
72854;PMS7003;60991;51.278;22.550;2023-08-01T03:58:11;12.25;11.00;8.25
72854;PMS7003;60991;51.278;22.550;2023-08-01T03:59:41;13.75;12.50;9.00
72854;PMS7003;60991;51.278;22.550;2023-08-01T04:01:11;12.75;12.00;8.00
72854;PMS7003;60991;51.278;22.550;2023-08-01T04:02:41;8.75;8.75;7.00
72854;PMS7003;60991;51.278;22.550;2023-08-01T04:04:12;12.00;12.00;8.50
72854;PMS7003;60991;51.278;22.550;2023-08-01T04:05:42;10.50;10.50;8.25
72854;PMS7003;60991;51.278;22.550;2023-08-01T04:07:13;12.25;12.00;8.75
72854;PMS7003;60991;51.278;22.550;2023-08-01T04:08:43;13.00;11.75;8.25
72854;PMS7003;60991;51.278;22.550;2023-08-01T04:10:13;13.75;9.50;7.00
72854;PMS7003;60991;51.278;22.550;2023-08-01T04:11:43;9.75;8.00;7.00
72854;PMS7003;60991;51.278;22.550;2023-08-01T04:13:13;12.75;11.50;8.00
72854;PMS7003;60991;51.278;22.550;2023-08-01T04:14:44;7.50;5.75;4.00
72854;PMS7003;60991;51.278;22.550;2023-08-01T04:16:14;11.00;10.00;8.00
72854;PMS7003;60991;51.278;22.550;2023-08-01T04:17:44;12.00;11.00;7.75
72854;PMS7003;60991;51.278;22.550;2023-08-01T04:19:14;15.00;13.25;9.00
72854;PMS7003;60991;51.278;22.550;2023-08-01T04:20:44;11.75;11.75;8.00
72854;PMS7003;60991;51.278;22.550;2023-08-01T04:22:15;13.25;11.75;9.00
72854;PMS7003;60991;51.278;22.550;2023-08-01T04:23:46;12.00;11.00;7.75
72854;PMS7003;60991;51.278;22.550;2023-08-01T04:25:16;8.00;8.00;7.00
72854;PMS7003;60991;51.278;22.550;2023-08-01T04:26:46;12.50;12.25;8.00
72854;PMS7003;60991;51.278;22.550;2023-08-01T04:28:16;11.50;9.50;7.00
72854;PMS7003;60991;51.278;22.550;2023-08-01T04:29:47;14.25;13.75;9.00
72854;PMS7003;60991;51.278;22.550;2023-08-01T04:31:17;15.25;12.75;9.75
72854;PMS7003;60991;51.278;22.550;2023-08-01T04:32:48;10.00;10.00;6.50
72854;PMS7003;60991;51.278;22.550;2023-08-01T04:34:18;9.75;9.25;6.50
72854;PMS7003;60991;51.278;22.550;2023-08-01T04:35:48;13.75;12.50;7.75
72854;PMS7003;60991;51.278;22.550;2023-08-01T04:37:18;12.50;9.00;7.00
72854;PMS7003;60991;51.278;22.550;2023-08-01T04:38:49;11.75;11.50;8.75
72854;PMS7003;60991;51.278;22.550;2023-08-01T04:40:19;11.00;10.00;7.25
72854;PMS7003;60991;51.278;22.550;2023-08-01T04:41:49;11.00;10.75;7.00
72854;PMS7003;60991;51.278;22.550;2023-08-01T04:43:19;9.25;9.25;7.00
72854;PMS7003;60991;51.278;22.550;2023-08-01T04:44:49;9.00;8.50;5.75
72854;PMS7003;60991;51.278;22.550;2023-08-01T04:46:20;11.00;9.00;7.50
72854;PMS7003;60991;51.278;22.550;2023-08-01T04:47:50;11.25;8.75;6.25
72854;PMS7003;60991;51.278;22.550;2023-08-01T04:49:20;10.00;9.50;7.25
72854;PMS7003;60991;51.278;22.550;2023-08-01T04:50:50;8.50;8.50;7.00
72854;PMS7003;60991;51.278;22.550;2023-08-01T04:52:20;8.00;8.00;5.50
72854;PMS7003;60991;51.278;22.550;2023-08-01T04:53:51;9.75;8.25;6.00
72854;PMS7003;60991;51.278;22.550;2023-08-01T04:55:21;8.00;8.00;6.00
72854;PMS7003;60991;51.278;22.550;2023-08-01T04:56:51;10.50;10.25;7.50
72854;PMS7003;60991;51.278;22.550;2023-08-01T04:58:22;9.50;8.50;6.50
72854;PMS7003;60991;51.278;22.550;2023-08-01T04:59:52;9.75;8.50;6.50
72854;PMS7003;60991;51.278;22.550;2023-08-01T05:01:22;10.50;10.50;6.50
72854;PMS7003;60991;51.278;22.550;2023-08-01T05:02:52;11.25;9.00;5.25
72854;PMS7003;60991;51.278;22.550;2023-08-01T05:04:23;12.00;11.25;7.25
72854;PMS7003;60991;51.278;22.550;2023-08-01T05:05:54;15.25;12.00;8.00
72854;PMS7003;60991;51.278;22.550;2023-08-01T05:07:24;11.00;8.75;6.75
72854;PMS7003;60991;51.278;22.550;2023-08-01T05:08:54;8.75;6.75;5.00
72854;PMS7003;60991;51.278;22.550;2023-08-01T05:10:24;6.00;6.00;4.00
72854;PMS7003;60991;51.278;22.550;2023-08-01T05:11:54;10.50;8.75;7.50
72854;PMS7003;60991;51.278;22.550;2023-08-01T05:13:25;8.75;7.75;5.75
72854;PMS7003;60991;51.278;22.550;2023-08-01T05:14:55;9.75;9.75;7.00
72854;PMS7003;60991;51.278;22.550;2023-08-01T05:16:25;10.00;8.00;5.75
72854;PMS7003;60991;51.278;22.550;2023-08-01T05:17:55;8.25;7.00;6.00
72854;PMS7003;60991;51.278;22.550;2023-08-01T05:19:25;8.00;8.00;6.50
72854;PMS7003;60991;51.278;22.550;2023-08-01T05:20:56;9.00;9.00;7.00
72854;PMS7003;60991;51.278;22.550;2023-08-01T05:22:26;6.50;6.50;6.25
72854;PMS7003;60991;51.278;22.550;2023-08-01T05:23:56;3.75;2.50;0.50
72854;PMS7003;60991;51.278;22.550;2023-08-01T05:25:26;9.75;9.75;6.25
72854;PMS7003;60991;51.278;22.550;2023-08-01T05:26:57;10.75;9.25;7.00
72854;PMS7003;60991;51.278;22.550;2023-08-01T05:28:27;8.50;8.50;6.50
72854;PMS7003;60991;51.278;22.550;2023-08-01T05:29:57;7.00;7.00;5.50
72854;PMS7003;60991;51.278;22.550;2023-08-01T05:31:28;8.25;7.75;5.75
72854;PMS7003;60991;51.278;22.550;2023-08-01T05:32:58;7.75;7.75;5.75
72854;PMS7003;60991;51.278;22.550;2023-08-01T05:34:28;8.00;7.75;5.50
72854;PMS7003;60991;51.278;22.550;2023-08-01T05:35:59;9.00;8.00;7.00
72854;PMS7003;60991;51.278;22.550;2023-08-01T05:37:29;10.00;9.00;6.25
72854;PMS7003;60991;51.278;22.550;2023-08-01T05:38:59;9.75;8.75;6.25
72854;PMS7003;60991;51.278;22.550;2023-08-01T05:40:29;6.75;6.50;5.00
72854;PMS7003;60991;51.278;22.550;2023-08-01T05:42:00;6.75;6.75;5.75
72854;PMS7003;60991;51.278;22.550;2023-08-01T05:43:30;8.50;7.50;4.75
72854;PMS7003;60991;51.278;22.550;2023-08-01T05:45:00;8.00;8.00;6.00
72854;PMS7003;60991;51.278;22.550;2023-08-01T05:46:30;7.00;7.00;5.25
72854;PMS7003;60991;51.278;22.550;2023-08-01T05:48:01;8.50;8.00;5.50
72854;PMS7003;60991;51.278;22.550;2023-08-01T05:49:31;5.50;5.50;4.50
72854;PMS7003;60991;51.278;22.550;2023-08-01T05:51:02;5.75;5.00;4.00
72854;PMS7003;60991;51.278;22.550;2023-08-01T05:52:32;9.75;7.75;4.75
72854;PMS7003;60991;51.278;22.550;2023-08-01T05:54:03;6.00;6.00;4.75
72854;PMS7003;60991;51.278;22.550;2023-08-01T05:55:33;6.50;6.50;5.25
72854;PMS7003;60991;51.278;22.550;2023-08-01T05:57:04;5.75;5.75;4.75
72854;PMS7003;60991;51.278;22.550;2023-08-01T05:58:35;7.50;7.00;6.00
72854;PMS7003;60991;51.278;22.550;2023-08-01T06:00:05;8.50;5.75;4.75
72854;PMS7003;60991;51.278;22.550;2023-08-01T06:01:36;6.25;6.25;4.75
72854;PMS7003;60991;51.278;22.550;2023-08-01T06:03:06;5.50;5.00;4.50
72854;PMS7003;60991;51.278;22.550;2023-08-01T06:04:37;7.00;6.25;4.75
72854;PMS7003;60991;51.278;22.550;2023-08-01T06:06:07;5.25;5.00;4.00
72854;PMS7003;60991;51.278;22.550;2023-08-01T06:07:37;6.50;5.75;4.25
72854;PMS7003;60991;51.278;22.550;2023-08-01T06:09:07;7.25;5.75;4.25
72854;PMS7003;60991;51.278;22.550;2023-08-01T06:10:38;5.25;5.25;4.25
72854;PMS7003;60991;51.278;22.550;2023-08-01T06:12:08;5.50;5.50;5.00
72854;PMS7003;60991;51.278;22.550;2023-08-01T06:13:38;5.75;5.00;4.00
72854;PMS7003;60991;51.278;22.550;2023-08-01T06:15:08;6.75;6.00;4.00
72854;PMS7003;60991;51.278;22.550;2023-08-01T06:16:39;5.00;5.00;4.00
72854;PMS7003;60991;51.278;22.550;2023-08-01T06:18:09;5.50;4.75;4.00
72854;PMS7003;60991;51.278;22.550;2023-08-01T06:19:39;7.25;6.50;5.75
72854;PMS7003;60991;51.278;22.550;2023-08-01T06:21:09;7.75;7.00;4.00
72854;PMS7003;60991;51.278;22.550;2023-08-01T06:22:41;7.75;6.00;4.75
72854;PMS7003;60991;51.278;22.550;2023-08-01T06:24:11;8.25;6.25;4.75
72854;PMS7003;60991;51.278;22.550;2023-08-01T06:25:41;5.25;4.75;3.75
72854;PMS7003;60991;51.278;22.550;2023-08-01T06:27:12;6.25;5.50;4.25
72854;PMS7003;60991;51.278;22.550;2023-08-01T06:28:42;4.00;3.75;3.25
72854;PMS7003;60991;51.278;22.550;2023-08-01T06:30:12;7.50;6.25;5.25
72854;PMS7003;60991;51.278;22.550;2023-08-01T06:31:43;7.25;7.00;5.00
72854;PMS7003;60991;51.278;22.550;2023-08-01T06:33:13;7.00;7.00;4.50
72854;PMS7003;60991;51.278;22.550;2023-08-01T06:34:44;5.75;5.75;4.00
72854;PMS7003;60991;51.278;22.550;2023-08-01T06:36:14;6.25;6.25;5.25
72854;PMS7003;60991;51.278;22.550;2023-08-01T06:37:44;6.00;6.00;4.75
72854;PMS7003;60991;51.278;22.550;2023-08-01T06:39:14;8.00;5.75;4.75
72854;PMS7003;60991;51.278;22.550;2023-08-01T06:40:44;6.00;6.00;4.25
72854;PMS7003;60991;51.278;22.550;2023-08-01T06:42:15;5.50;5.50;4.00
72854;PMS7003;60991;51.278;22.550;2023-08-01T06:43:45;4.75;4.75;3.75
72854;PMS7003;60991;51.278;22.550;2023-08-01T06:45:15;6.25;6.25;4.75
72854;PMS7003;60991;51.278;22.550;2023-08-01T06:46:45;5.00;5.00;3.75
72854;PMS7003;60991;51.278;22.550;2023-08-01T06:48:15;3.50;3.50;3.00
72854;PMS7003;60991;51.278;22.550;2023-08-01T06:49:46;6.00;6.00;4.25
72854;PMS7003;60991;51.278;22.550;2023-08-01T06:51:16;6.00;4.25;3.50
72854;PMS7003;60991;51.278;22.550;2023-08-01T06:52:46;2.00;2.00;1.00
72854;PMS7003;60991;51.278;22.550;2023-08-01T06:54:16;4.50;4.50;3.75
72854;PMS7003;60991;51.278;22.550;2023-08-01T06:55:46;7.00;6.75;4.75
72854;PMS7003;60991;51.278;22.550;2023-08-01T06:57:17;6.00;5.00;4.00
72854;PMS7003;60991;51.278;22.550;2023-08-01T06:58:47;5.75;4.75;2.75
72854;PMS7003;60991;51.278;22.550;2023-08-01T07:00:17;4.00;3.25;3.00
72854;PMS7003;60991;51.278;22.550;2023-08-01T07:01:47;4.50;4.50;4.00
72854;PMS7003;60991;51.278;22.550;2023-08-01T07:03:17;5.75;5.75;4.00
72854;PMS7003;60991;51.278;22.550;2023-08-01T07:04:48;5.00;5.00;4.25
72854;PMS7003;60991;51.278;22.550;2023-08-01T07:06:18;4.00;4.00;3.75
72854;PMS7003;60991;51.278;22.550;2023-08-01T07:07:48;4.00;4.00;4.00
72854;PMS7003;60991;51.278;22.550;2023-08-01T07:09:18;4.25;3.75;2.25
72854;PMS7003;60991;51.278;22.550;2023-08-01T07:10:49;4.50;4.50;4.00
72854;PMS7003;60991;51.278;22.550;2023-08-01T07:12:19;4.75;4.75;4.00
72854;PMS7003;60991;51.278;22.550;2023-08-01T07:13:49;4.50;4.50;4.00
72854;PMS7003;60991;51.278;22.550;2023-08-01T07:15:19;6.25;4.00;3.50
72854;PMS7003;60991;51.278;22.550;2023-08-01T07:16:50;6.00;4.00;4.00
72854;PMS7003;60991;51.278;22.550;2023-08-01T07:18:20;5.00;5.00;3.50
72854;PMS7003;60991;51.278;22.550;2023-08-01T07:19:50;3.75;3.75;3.00
72854;PMS7003;60991;51.278;22.550;2023-08-01T07:21:20;3.75;3.75;3.00
72854;PMS7003;60991;51.278;22.550;2023-08-01T07:22:50;4.50;4.50;3.25
72854;PMS7003;60991;51.278;22.550;2023-08-01T07:24:21;4.00;4.00;3.50
72854;PMS7003;60991;51.278;22.550;2023-08-01T07:25:51;3.50;3.50;3.00
72854;PMS7003;60991;51.278;22.550;2023-08-01T07:27:21;5.00;4.00;3.00
72854;PMS7003;60991;51.278;22.550;2023-08-01T07:28:51;6.00;3.50;3.00
72854;PMS7003;60991;51.278;22.550;2023-08-01T07:30:22;5.50;4.00;3.00
72854;PMS7003;60991;51.278;22.550;2023-08-01T07:31:52;8.00;5.00;4.00
72854;PMS7003;60991;51.278;22.550;2023-08-01T07:33:22;5.50;5.50;5.00
72854;PMS7003;60991;51.278;22.550;2023-08-01T07:34:52;5.00;5.00;3.00
72854;PMS7003;60991;51.278;22.550;2023-08-01T07:36:23;4.50;4.50;2.75
72854;PMS7003;60991;51.278;22.550;2023-08-01T07:37:53;3.25;3.25;2.75
72854;PMS7003;60991;51.278;22.550;2023-08-01T07:39:23;6.00;4.25;4.00
72854;PMS7003;60991;51.278;22.550;2023-08-01T07:40:54;5.00;5.00;4.00
72854;PMS7003;60991;51.278;22.550;2023-08-01T07:42:25;6.50;6.00;4.00
72854;PMS7003;60991;51.278;22.550;2023-08-01T07:43:55;4.00;3.00;3.00
72854;PMS7003;60991;51.278;22.550;2023-08-01T07:45:25;4.00;3.50;3.00
72854;PMS7003;60991;51.278;22.550;2023-08-01T07:46:56;4.00;3.00;2.50
72854;PMS7003;60991;51.278;22.550;2023-08-01T07:48:27;5.25;5.25;4.00
72854;PMS7003;60991;51.278;22.550;2023-08-01T07:49:57;3.25;3.25;3.00
72854;PMS7003;60991;51.278;22.550;2023-08-01T07:51:27;3.50;3.50;3.25
72854;PMS7003;60991;51.278;22.550;2023-08-01T07:52:57;3.75;3.75;3.00
72854;PMS7003;60991;51.278;22.550;2023-08-01T07:54:28;4.25;4.25;3.00
72854;PMS7003;60991;51.278;22.550;2023-08-01T07:55:58;4.75;4.75;3.00
72854;PMS7003;60991;51.278;22.550;2023-08-01T07:57:28;4.75;4.75;4.00
72854;PMS7003;60991;51.278;22.550;2023-08-01T07:58:58;3.50;3.50;2.25
72854;PMS7003;60991;51.278;22.550;2023-08-01T08:00:29;5.00;5.00;4.00
72854;PMS7003;60991;51.278;22.550;2023-08-01T08:01:59;3.25;3.25;3.00
72854;PMS7003;60991;51.278;22.550;2023-08-01T08:03:30;4.25;4.25;3.00
72854;PMS7003;60991;51.278;22.550;2023-08-01T08:05:00;3.00;3.00;2.25
72854;PMS7003;60991;51.278;22.550;2023-08-01T08:06:30;5.00;4.00;3.00
72854;PMS7003;60991;51.278;22.550;2023-08-01T08:08:01;2.75;2.50;2.25
72854;PMS7003;60991;51.278;22.550;2023-08-01T08:09:31;3.50;3.25;2.25
72854;PMS7003;60991;51.278;22.550;2023-08-01T08:11:01;5.50;3.75;3.00
72854;PMS7003;60991;51.278;22.550;2023-08-01T08:12:32;3.00;3.00;3.00
72854;PMS7003;60991;51.278;22.550;2023-08-01T08:14:02;3.50;3.00;2.25
72854;PMS7003;60991;51.278;22.550;2023-08-01T08:15:33;6.00;5.00;4.00
72854;PMS7003;60991;51.278;22.550;2023-08-01T08:17:03;4.50;4.50;3.75
72854;PMS7003;60991;51.278;22.550;2023-08-01T08:18:33;3.00;3.00;3.00
72854;PMS7003;60991;51.278;22.550;2023-08-01T08:20:03;4.00;4.00;4.00
72854;PMS7003;60991;51.278;22.550;2023-08-01T08:21:34;5.00;4.00;3.00
72854;PMS7003;60991;51.278;22.550;2023-08-01T08:23:04;1.50;1.00;1.00
72854;PMS7003;60991;51.278;22.550;2023-08-01T08:24:34;4.75;4.75;4.00
72854;PMS7003;60991;51.278;22.550;2023-08-01T08:26:05;5.25;4.50;4.00
72854;PMS7003;60991;51.278;22.550;2023-08-01T08:27:35;3.00;3.00;3.00
72854;PMS7003;60991;51.278;22.550;2023-08-01T08:29:05;1.75;1.75;1.00
72854;PMS7003;60991;51.278;22.550;2023-08-01T08:30:35;3.50;3.50;2.00
72854;PMS7003;60991;51.278;22.550;2023-08-01T08:32:06;3.25;3.25;3.00
72854;PMS7003;60991;51.278;22.550;2023-08-01T08:33:36;4.25;4.00;3.75
72854;PMS7003;60991;51.278;22.550;2023-08-01T08:35:07;4.00;4.00;3.00